Salonica, Greece
Current Conditions -  °F | °C
As of 9:50 PM on Thursday 30 Oct 2014 (Local Time) from LGTS Reporting Station
Scattered Clouds Scattered Clouds  
Wind Chill: 52°   Ceiling: Unl
Heat Index: 52°   Visibility: 6mi
Dew Point: 45°   Wind: 5mph
Humidity: 76%   Direction: 90°E
Pressure: 30.09"   Gusts: NA
Location:  40.52°N, 22.97°E
Report Text: LGTS 301850Z 09004KT 9999 FEW025 SCT070 11/07 Q1019 NOSIG
Loading
Personal Weather Stations






























Interactive Weather Map
Tropical Storm Tracking
New forecast layout! Learn more

10-Day Weather Forecast

Advertisements
Track Severe Weather on mobile